Latest Weather Observations for Kalumburu

IDW60801

Issued at 12:03 pm WST Tuesday 15 October 2019 (issued every 10 minutes, with the page automatically refreshed every 10 minutes)

About weather observations | Map of weather stations | Latest weather observations for WA | Other Formats
Station Details ID: 001019 Name: KALUMBURU Lat: -14.30 Lon: 126.65 Height: 23.0 m
Data from the previous 72 hours. | See also: Recent months at Kalumburu
Date/Time
WST
Temp
°C
App
Temp
°C
Dew
Point
°C
Rel
Hum
%
Delta-T
°C
Wind Press
QNH
hPa
Press
MSL
hPa
Rain since
9am
mm
Dir  Spd
km/h
Gust
km/h
Spd
kts
Gust
kts
15/12:00pm 36.4 32.2 5.6 15 16.8 N 17 24 9 13 1011.5 1011.3 0.0
15/11:30am 37.0 32.9 6.1 15 17.0 NNW 17 26 9 14 1012.1 1011.9 0.0
15/11:00am 35.9 31.0 5.2 15 16.6 N 20 28 11 15 1012.7 1012.5 0.0
15/10:30am 36.2 31.4 4.5 14 16.9 N 19 28 10 15 1013.1 1012.9 0.0
15/10:00am 36.0 31.7 5.3 15 16.6 NNW 17 28 9 15 1013.3 1013.1 0.0
15/09:30am 35.1 32.9 9.5 21 14.7 N 11 19 6 10 1013.5 1013.3 0.0
15/09:00am 33.7 31.9 10.9 25 13.3 N 11 17 6 9 1013.7 1013.5 0.0
15/08:30am 32.3 33.0 15.7 36 10.4 NW 6 9 3 5 1013.8 1013.6 0.0
15/08:00am 30.6 33.1 19.9 52 7.0 SW 6 9 3 5 1013.8 1013.6 0.0
15/07:30am 28.8 32.0 21.6 65 4.8 S 7 11 4 6 1014.0 1013.8 0.0
15/07:00am 27.4 30.9 22.1 73 3.6 SSE 7 9 4 5 1013.7 1013.5 0.0
15/06:30am 25.7 30.4 22.6 83 2.1 S 2 7 1 4 1013.4 1013.2 0.0
15/06:00am 23.3 27.9 21.7 91 1.1 CALM 0 6 0 3 1013.0 1012.8 0.0
15/05:30am 21.8 25.5 19.9 89 1.2 CALM 0 0 0 0 1012.8 1012.6 0.0
15/05:00am 22.2 26.2 20.5 90 1.1 CALM 0 0 0 0 1012.5 1012.3 0.0
15/04:30am 22.5 26.6 20.8 90 1.1 CALM 0 0 0 0 1012.2 1012.0 0.0
15/04:00am 21.9 25.6 20.0 89 1.2 CALM 0 0 0 0 1012.0 1011.8 0.0
15/03:30am 22.4 26.4 20.5 89 1.2 CALM 0 0 0 0 1011.9 1011.7 0.0
15/03:00am 22.4 26.2 20.1 87 1.5 CALM 0 0 0 0 1011.7 1011.5 0.0
15/02:30am 23.1 26.9 21.0 88 1.4 S 2 7 1 4 1011.7 1011.5 0.0
15/02:00am 23.5 27.4 21.2 87 1.5 SW 2 6 1 3 1011.7 1011.5 0.0
15/01:30am 23.8 28.1 21.1 85 1.8 CALM 0 0 0 0 1011.8 1011.6 0.0
15/01:00am 24.6 28.6 22.1 86 1.7 WSW 4 7 2 4 1012.1 1011.9 0.0
15/12:30am 24.5 28.3 22.4 88 1.4 NW 6 11 3 6 1012.2 1012.0 0.0
15/12:00am 23.8 27.1 21.5 87 1.5 NNW 6 7 3 4 1012.4 1012.2 0.0
 
Date/Time
WST
Temp
°C
App
Temp
°C
Dew
Point
°C
Rel
Hum
%
Delta-T
°C
Wind Press
QNH
hPa
Press
MSL
hPa
Rain since
9am
mm
Dir  Spd
km/h
Gust
km/h
Spd
kts
Gust
kts
14/11:30pm 23.6 27.8 20.9 85 1.8 CALM 0 0 0 0 1012.6 1012.4 0.0
14/11:00pm 24.2 28.3 20.7 81 2.3 CALM 0 0 0 0 1012.8 1012.6 0.0
14/10:30pm 25.0 29.0 21.3 80 2.4 WNW 2 6 1 3 1013.0 1012.8 0.0
14/10:00pm 25.7 29.1 21.6 78 2.7 WNW 6 9 3 5 1013.0 1012.8 0.0
14/09:30pm 26.2 29.5 21.4 75 3.2 WNW 6 9 3 5 1013.0 1012.8 0.0
14/09:00pm 26.3 29.7 21.7 76 3.1 WNW 6 11 3 6 1013.0 1012.8 0.0
14/08:30pm 26.4 29.6 21.2 73 3.4 NW 6 9 3 5 1013.0 1012.8 0.0
14/08:00pm 26.9 29.6 21.4 72 3.7 NNW 9 11 5 6 1012.7 1012.5 0.0
14/07:30pm 27.0 29.9 21.7 73 3.5 NNW 9 13 5 7 1012.4 1012.2 0.0
14/07:00pm 27.2 30.2 21.9 73 3.6 NNW 9 13 5 7 1011.9 1011.7 0.0
14/06:30pm 27.6 30.3 22.1 72 3.7 NNW 11 17 6 9 1011.5 1011.3 0.0
14/06:00pm 27.8 30.3 22.5 73 3.6 NNW 13 20 7 11 1011.2 1011.0 0.0
14/05:30pm 28.3 29.9 22.1 69 4.2 N 17 22 9 12 1010.9 1010.7 0.0
14/05:00pm 29.2 30.6 21.9 64 4.9 N 17 24 9 13 1010.7 1010.5 0.0
14/04:30pm 30.2 31.2 21.8 60 5.7 N 19 26 10 14 1010.5 1010.3 0.0
14/04:00pm 30.8 31.7 21.9 59 6.0 N 20 33 11 18 1010.3 1010.1 0.0
14/03:30pm 31.6 32.1 22.6 59 6.2 N 24 35 13 19 1010.3 1010.1 0.0
14/03:00pm 33.5 34.5 22.9 53 7.3 N 22 32 12 17 1010.2 1010.0 0.0
14/02:30pm 33.2 33.9 22.3 52 7.5 N 22 33 12 18 1010.2 1010.0 0.0
14/02:00pm 33.4 33.2 21.2 48 8.2 N 24 33 13 18 1010.4 1010.2 0.0
14/01:30pm 34.4 33.9 20.7 44 9.2 N 24 41 13 22 1010.4 1010.2 0.0
14/01:00pm 34.9 33.9 19.7 41 10.1 N 24 35 13 19 1010.7 1010.5 0.0
14/12:30pm 35.1 34.4 20.2 41 10.0 NNW 24 33 13 18 1011.0 1010.8 0.0
14/12:00pm 36.1 35.6 19.1 36 11.2 NNW 20 35 11 19 1011.3 1011.1 0.0
14/11:30am 36.5 35.3 17.1 31 12.5 NNW 19 26 10 14 1011.7 1011.5 0.0
14/11:00am 37.4 36.5 16.9 30 13.2 NNW 17 26 9 14 1012.1 1011.9 0.0
14/10:30am 37.3 35.9 13.3 23 14.7 NW 13 20 7 11 1012.3 1012.1 0.0
14/10:00am 36.2 36.3 17.4 33 12.2 N 13 17 7 9 1012.5 1012.3 0.0
14/09:30am 35.0 36.5 18.1 36 11.0 W 7 13 4 7 1012.9 1012.7 0.0
14/09:00am 33.5 35.7 19.6 44 9.2 NW 7 15 4 8 1013.3 1013.1 0.0
14/08:30am 32.5 35.1 20.4 49 8.1 WNW 7 13 4 7 1013.4 1013.2 0.0
14/08:00am 30.7 34.2 21.8 59 6.0 NW 6 11 3 6 1013.2 1013.0 0.0
14/07:30am 29.3 32.6 21.8 64 5.0 WNW 7 11 4 6 1013.2 1013.0 0.0
14/07:00am 28.2 32.3 22.2 70 4.1 SW 4 11 2 6 1013.1 1012.9 0.0
14/06:30am 26.4 31.3 22.3 78 2.8 CALM 0 0 0 0 1012.7 1012.5 0.0
14/06:00am 23.8 28.6 22.2 91 1.1 CALM 0 0 0 0 1012.5 1012.3 0.0
14/05:30am 21.8 25.5 19.9 89 1.2 CALM 0 7 0 4 1012.5 1012.3 0.0
14/05:00am 21.8 25.5 19.9 89 1.2 CALM 0 0 0 0 1012.0 1011.8 0.0
14/04:30am 21.9 25.6 20.0 89 1.2 CALM 0 0 0 0 1011.3 1011.1 0.0
14/04:00am 22.1 25.8 20.0 88 1.4 CALM 0 0 0 0 1010.8 1010.6 0.0
14/03:30am 22.3 26.1 20.2 88 1.4 CALM 0 0 0 0 1010.5 1010.3 0.0
14/03:00am 22.6 26.6 20.5 88 1.4 CALM 0 0 0 0 1010.3 1010.1 0.0
14/02:30am 22.7 25.9 20.4 87 1.5 ESE 4 6 2 3 1010.2 1010.0 0.0
14/02:00am 22.6 26.5 20.3 87 1.5 CALM 0 0 0 0 1010.2 1010.0 0.0
14/01:30am 22.7 26.5 20.2 86 1.6 CALM 0 0 0 0 1010.1 1009.9 0.0
14/01:00am 22.9 26.7 20.2 85 1.7 CALM 0 0 0 0 1010.2 1010.0 0.0
14/12:30am 23.1 26.9 20.1 83 1.9 CALM 0 0 0 0 1010.5 1010.3 0.0
14/12:00am 23.5 27.2 20.0 81 2.3 CALM 0 0 0 0 1010.7 1010.5 0.0
 
Date/Time
WST
Temp
°C
App
Temp
°C
Dew
Point
°C
Rel
Hum
%
Delta-T
°C
Wind Press
QNH
hPa
Press
MSL
hPa
Rain since
9am
mm
Dir  Spd
km/h
Gust
km/h
Spd
kts
Gust
kts
13/11:30pm 24.1 28.0 20.4 80 2.4 CALM 0 0 0 0 1011.0 1010.8 0.0
13/11:00pm 24.4 27.4 20.1 77 2.8 NW 4 6 2 3 1011.2 1011.0 0.0
13/10:30pm 25.5 29.4 20.3 73 3.4 CALM 0 0 0 0 1011.3 1011.1 0.0
13/10:00pm 27.0 29.8 20.8 69 4.1 NW 7 11 4 6 1011.4 1011.2 0.0
13/09:30pm 27.3 30.0 21.3 69 4.0 NW 9 13 5 7 1011.2 1011.0 0.0
13/09:00pm 27.4 30.0 21.2 69 4.1 NNW 9 13 5 7 1011.2 1011.0 0.0
13/08:30pm 27.5 30.0 20.3 65 4.7 NNW 7 9 4 5 1011.2 1011.0 0.0
13/08:00pm 27.7 30.3 20.5 65 4.7 N 7 9 4 5 1011.0 1010.8 0.0
13/07:30pm 28.1 31.4 22.6 72 3.7 N 9 11 5 6 1010.7 1010.5 0.0
13/07:00pm 28.9 32.0 23.6 73 3.7 NNE 13 19 7 10 1010.4 1010.2 0.0
13/06:30pm 29.3 32.3 23.3 70 4.1 N 13 20 7 11 1009.9 1009.7 0.0
13/06:00pm 30.1 33.3 23.0 65 4.9 N 11 17 6 9 1009.5 1009.3 0.0
13/05:30pm 31.2 33.8 21.9 57 6.3 N 11 17 6 9 1009.0 1008.8 0.0
13/05:00pm 32.9 34.3 21.1 50 8.0 N 15 20 8 11 1008.4 1008.2 0.0
13/04:30pm 35.1 34.8 18.2 36 11.0 N 17 20 9 11 1008.1 1007.9 0.0
13/04:00pm 36.4 34.6 13.2 25 14.2 NNW 15 22 8 12 1007.8 1007.6 0.0
13/03:30pm 36.8 34.3 14.1 25 14.0 N 20 28 11 15 1007.8 1007.6 0.0
13/03:00pm 37.0 35.6 16.5 29 13.2 N 19 28 10 15 1007.8 1007.6 0.0
13/02:30pm 37.7 34.7 13.7 24 14.8 N 22 30 12 16 1007.8 1007.6 0.0
13/02:00pm 38.0 35.4 13.9 24 15.0 N 20 28 11 15 1008.0 1007.8 0.0
13/01:30pm 38.5 36.3 14.3 23 15.1 NNW 19 26 10 14 1008.4 1008.2 0.0
13/01:00pm 38.5 35.9 13.7 23 15.4 NNW 20 30 11 16 1008.7 1008.5 0.0
13/12:30pm 38.5 35.6 13.0 22 15.6 NW 20 28 11 15 1009.1 1008.9 0.0
13/12:00pm 38.4 37.4 12.2 21 15.9 NNW 9 24 5 13 1009.7 1009.5 0.0
13/11:30am 38.6 36.5 8.3 16 17.4 NNW 9 15 5 8 1010.4 1010.2 0.0
13/11:00am 38.3 36.8 9.0 17 17.0 SSW 7 13 4 7 1011.1 1010.9 0.0
13/10:30am 37.4 34.5 6.4 15 17.2 SSW 11 17 6 9 1011.6 1011.4 0.0
13/10:00am 36.2 35.6 13.6 25 13.9 S 9 15 5 8 1012.2 1012.0 0.0
13/09:30am 34.8 35.0 15.7 32 12.0 S 9 13 5 7 1012.6 1012.4 0.0
13/09:00am 32.9 33.5 16.7 38 10.3 S 9 15 5 8 1013.0 1012.8 0.0
13/08:30am 31.5 32.5 17.8 44 8.8 S 9 13 5 7 1013.3 1013.1 0.0
13/08:00am 29.9 32.4 20.2 56 6.4 SSW 7 13 4 7 1013.4 1013.2 0.0
13/07:30am 29.2 33.4 22.4 66 4.6 ESE 4 7 2 4 1013.3 1013.1 0.0
13/07:00am 26.8 30.7 21.8 74 3.3 SSE 4 7 2 4 1013.2 1013.0 0.0
13/06:30am 25.5 30.7 22.8 85 1.8 CALM 0 0 0 0 1012.8 1012.6 0.0
13/06:00am 22.6 26.9 21.1 91 1.0 CALM 0 0 0 0 1012.2 1012.0 0.0
13/05:30am 20.9 24.2 19.2 90 1.1 CALM 0 0 0 0 1011.9 1011.7 0.0
13/05:00am 20.9 24.2 19.2 90 1.1 CALM 0 0 0 0 1011.5 1011.3 0.0
13/04:30am 20.4 23.4 18.5 89 1.2 CALM 0 0 0 0 1011.2 1011.0 0.0
13/04:00am 21.0 24.4 19.3 90 1.1 CALM 0 0 0 0 1011.0 1010.8 0.0
13/03:30am 21.0 24.3 19.1 89 1.2 CALM 0 0 0 0 1010.8 1010.6 0.0
13/03:00am 21.3 24.7 19.4 89 1.2 CALM 0 0 0 0 1010.4 1010.2 0.0
13/02:30am 21.3 24.7 19.4 89 1.2 CALM 0 0 0 0 1010.2 1010.0 0.0
13/02:00am 21.9 25.6 20.0 89 1.2 CALM 0 0 0 0 1009.9 1009.7 0.0
13/01:30am 21.9 25.6 20.0 89 1.2 CALM 0 0 0 0 1009.9 1009.7 0.0
13/01:00am 22.0 25.6 19.7 87 1.5 CALM 0 0 0 0 1010.0 1009.8 0.0
13/12:30am 22.2 25.9 19.9 87 1.5 CALM 0 0 0 0 1010.3 1010.1 0.0
13/12:00am 22.5 26.2 20.0 86 1.6 CALM 0 0 0 0 1010.5 1010.3 0.0
 
Date/Time
WST
Temp
°C
App
Temp
°C
Dew
Point
°C
Rel
Hum
%
Delta-T
°C
Wind Press
QNH
hPa
Press
MSL
hPa
Rain since
9am
mm
Dir  Spd
km/h
Gust
km/h
Spd
kts
Gust
kts
12/11:30pm 22.8 26.4 19.8 83 1.9 CALM 0 0 0 0 1010.8 1010.6 0.0
12/11:00pm 24.4 28.6 20.9 81 2.3 CALM 0 0 0 0 1011.1 1010.9 0.0
12/10:30pm 25.5 29.0 21.8 80 2.5 NW 6 9 3 5 1011.5 1011.3 0.0
12/10:00pm 25.3 29.0 21.4 79 2.6 WNW 4 7 2 4 1011.8 1011.6 0.0
12/09:30pm 25.1 28.7 21.2 79 2.6 WNW 4 9 2 5 1012.0 1011.8 0.0
12/09:00pm 26.2 30.0 21.0 73 3.4 WNW 2 7 1 4 1012.0 1011.8 0.0
12/08:30pm 26.9 30.5 22.1 75 3.2 NW 6 9 3 5 1011.8 1011.6 0.0
12/08:00pm 27.1 30.7 22.3 75 3.2 NNW 7 11 4 6 1011.7 1011.5 0.0
12/07:30pm 27.4 30.0 21.9 72 3.7 N 11 13 6 7 1011.4 1011.2 0.0
12/07:00pm 27.9 29.8 21.4 67 4.3 N 13 17 7 9 1010.9 1010.7 0.0
12/06:30pm 28.3 30.1 21.1 65 4.8 N 13 19 7 10 1010.5 1010.3 0.0
12/06:00pm 28.8 30.2 21.1 63 5.1 N 15 24 8 13 1009.9 1009.7 0.0
12/05:30pm 29.3 31.5 21.8 64 5.0 N 13 20 7 11 1009.4 1009.2 0.0
12/05:00pm 30.2 31.0 20.7 56 6.3 N 17 26 9 14 1009.0 1008.8 0.0
12/04:30pm 31.2 32.4 21.4 56 6.6 N 17 30 9 16 1008.5 1008.3 0.0
12/04:00pm 32.1 32.4 20.7 51 7.6 N 20 32 11 17 1007.9 1007.7 0.0
12/03:30pm 32.8 32.3 20.0 47 8.5 N 22 32 12 17 1007.8 1007.6 0.0
12/03:00pm 33.8 32.9 19.8 43 9.3 N 24 32 13 17 1007.5 1007.3 0.0
12/02:30pm 34.7 33.4 19.1 39 10.3 NNW 24 33 13 18 1007.6 1007.4 0.0
12/02:00pm 35.1 32.3 15.4 30 12.4 NNW 24 41 13 22 1007.7 1007.5 0.0
12/01:30pm 35.8 34.2 18.4 35 11.4 N 24 35 13 19 1007.6 1007.4 0.0
12/01:00pm 36.3 34.3 18.4 35 11.8 N 26 35 14 19 1007.7 1007.5 0.0
12/12:30pm 36.8 35.6 18.4 34 12.1 NNW 22 33 12 18 1008.1 1007.9 0.0

Other formats

Comma delimited format used in spreadsheet applications
http://www.bom.gov.au/fwo/IDW60801/IDW60801.94100.axf

JavaScript Object Notation format (JSON) in row-major order
http://www.bom.gov.au/fwo/IDW60801/IDW60801.94100.json

Data quality

Most of these data are generated automatically and are frequently updated. Quality checks on data are not normally performed. It is possible for incorrect values to appear. Refer to information at About Latest Weather Observations and please check the disclaimer before using these data.